createdAt,value
2022-10-21T00:02:10.573Z,16.96
2022-10-21T00:04:39.534Z,16.92
2022-10-21T00:07:09.384Z,17.01
2022-10-21T00:09:37.797Z,16.91
2022-10-21T00:12:06.334Z,17.07
2022-10-21T00:14:35.742Z,17.03
2022-10-21T00:17:04.163Z,17.03
2022-10-21T00:19:32.631Z,17.03
2022-10-21T00:22:01.038Z,17.02
2022-10-21T00:24:30.882Z,17.06
2022-10-21T00:26:59.373Z,17.03
2022-10-21T00:29:27.772Z,17.03
2022-10-21T00:31:56.240Z,17.14
2022-10-21T00:34:35.500Z,17.11
2022-10-21T00:37:03.974Z,17.06
2022-10-21T00:39:33.960Z,17.02
2022-10-21T00:42:02.860Z,17.06
2022-10-21T00:44:32.169Z,17.17
2022-10-21T00:47:04.190Z,17.18
2022-10-21T00:49:39.268Z,17.22
2022-10-21T00:52:13.338Z,17.20
2022-10-21T00:54:44.276Z,17.30
2022-10-21T00:57:13.063Z,17.42
2022-10-21T00:59:45.172Z,17.48
2022-10-21T01:02:13.699Z,17.50
2022-10-21T01:04:42.286Z,17.52
2022-10-21T01:07:11.254Z,17.48
2022-10-21T01:09:39.756Z,17.17
2022-10-21T01:12:18.391Z,17.20
2022-10-21T01:14:55.520Z,17.21
2022-10-21T01:17:45.178Z,17.03
2022-10-21T01:20:47.401Z,16.89
2022-10-21T01:23:47.951Z,16.75
2022-10-21T01:26:53.913Z,16.39
2022-10-21T01:29:52.823Z,16.43
2022-10-21T01:32:30.140Z,16.36
2022-10-21T01:35:04.422Z,16.36
2022-10-21T01:37:42.046Z,16.33
2022-10-21T01:40:19.104Z,16.32
2022-10-21T01:42:54.039Z,16.41
2022-10-21T01:45:30.464Z,16.32
2022-10-21T01:48:04.996Z,16.28
2022-10-21T01:50:38.049Z,16.23
2022-10-21T01:53:10.452Z,16.23
2022-10-21T01:55:40.934Z,16.17
2022-10-21T01:58:14.314Z,16.21
2022-10-21T02:00:44.909Z,16.27
2022-10-21T02:03:18.831Z,16.36
2022-10-21T02:05:47.241Z,16.39
2022-10-21T02:08:16.053Z,16.36
2022-10-21T02:10:48.481Z,16.38
2022-10-21T02:13:24.327Z,16.44
2022-10-21T02:15:56.421Z,16.29
2022-10-21T02:18:28.075Z,16.39
2022-10-21T02:20:59.890Z,16.35
2022-10-21T02:23:35.090Z,16.37
2022-10-21T02:26:03.910Z,16.51
2022-10-21T02:28:33.554Z,16.51
2022-10-21T02:31:13.452Z,16.50
2022-10-21T02:33:53.123Z,16.57
2022-10-21T02:36:32.010Z,16.54
2022-10-21T02:39:08.560Z,16.60
2022-10-21T02:41:39.084Z,16.67
2022-10-21T02:44:09.125Z,16.71
2022-10-21T02:46:38.945Z,16.76
2022-10-21T02:49:09.214Z,16.78
2022-10-21T02:51:37.696Z,16.78
2022-10-21T02:54:06.225Z,16.83
2022-10-21T02:56:35.514Z,16.88
2022-10-21T02:59:04.180Z,16.92
2022-10-21T03:01:32.672Z,17.02
2022-10-21T03:04:01.096Z,17.04
2022-10-21T03:06:30.886Z,17.10
2022-10-21T03:08:59.403Z,17.16
2022-10-21T03:11:27.869Z,17.15
2022-10-21T03:13:56.267Z,17.15
2022-10-21T03:16:24.708Z,17.12
2022-10-21T03:18:53.438Z,17.10
2022-10-21T03:21:22.255Z,17.18
2022-10-21T03:23:52.079Z,17.20
2022-10-21T03:26:20.537Z,17.08
2022-10-21T03:28:48.990Z,17.00
2022-10-21T03:31:17.639Z,16.91
2022-10-21T03:33:46.019Z,16.91
2022-10-21T03:36:14.444Z,16.83
2022-10-21T03:38:42.995Z,16.82
2022-10-21T03:41:12.825Z,16.71
2022-10-21T03:43:41.248Z,16.65
2022-10-21T03:46:09.698Z,16.47
2022-10-21T03:48:38.113Z,16.23
2022-10-21T03:51:06.925Z,16.08
2022-10-21T03:53:43.417Z,16.17
2022-10-21T03:56:14.036Z,16.10
2022-10-21T03:58:43.543Z,16.22
2022-10-21T04:01:14.124Z,16.32
2022-10-21T04:03:42.937Z,16.35
2022-10-21T04:06:11.545Z,16.37
2022-10-21T04:08:40.048Z,16.45
2022-10-21T04:11:08.516Z,16.47
2022-10-21T04:13:38.396Z,16.63
2022-10-21T04:16:12.102Z,16.60
2022-10-21T04:18:40.544Z,16.53
2022-10-21T04:21:10.020Z,16.52
2022-10-21T04:23:38.561Z,16.46
2022-10-21T04:26:07.786Z,16.60
2022-10-21T04:28:37.829Z,16.54
2022-10-21T04:31:06.608Z,16.64
2022-10-21T04:33:35.066Z,16.69
2022-10-21T04:36:03.527Z,16.67
2022-10-21T04:38:32.017Z,16.61
2022-10-21T04:41:01.686Z,16.75
2022-10-21T04:43:30.797Z,16.74
2022-10-21T04:46:00.717Z,16.84
2022-10-21T04:48:29.234Z,16.89
2022-10-21T04:50:57.990Z,16.88
2022-10-21T04:53:26.505Z,16.80
2022-10-21T04:55:55.547Z,16.91
2022-10-21T04:58:24.308Z,16.91
2022-10-21T05:03:56.801Z,16.96
2022-10-21T05:06:25.682Z,16.94
2022-10-21T05:08:54.257Z,17.05
2022-10-21T05:11:22.756Z,17.10
2022-10-21T05:13:51.198Z,17.13
2022-10-21T05:16:19.681Z,17.09
2022-10-21T05:18:48.153Z,17.13
2022-10-21T05:21:18.259Z,17.16
2022-10-21T05:23:46.691Z,17.08
2022-10-21T05:26:15.173Z,17.09
2022-10-21T05:28:43.604Z,17.03
2022-10-21T05:31:12.047Z,17.00
2022-10-21T05:33:40.543Z,16.93
2022-10-21T05:36:09.407Z,17.07
2022-10-21T05:38:39.234Z,17.09
2022-10-21T05:41:07.896Z,17.06
2022-10-21T05:43:36.294Z,17.05
2022-10-21T05:46:04.981Z,17.14
2022-10-21T05:48:33.695Z,17.05
2022-10-21T05:51:02.094Z,16.97
2022-10-21T05:53:30.504Z,16.93
2022-10-21T05:56:02.900Z,16.94
2022-10-21T05:58:32.728Z,17.05
2022-10-21T06:01:02.109Z,17.05
2022-10-21T06:03:32.502Z,17.13
2022-10-21T06:06:02.629Z,17.13
2022-10-21T06:08:33.036Z,17.22
2022-10-21T06:11:04.961Z,17.15
2022-10-21T06:13:33.661Z,16.96
2022-10-21T06:16:02.227Z,17.01
2022-10-21T06:18:30.800Z,16.92
2022-10-21T06:20:59.401Z,17.05
2022-10-21T06:23:28.220Z,17.14
2022-10-21T06:25:57.999Z,17.19
2022-10-21T06:28:29.644Z,17.16
2022-10-21T06:31:06.840Z,17.06
2022-10-21T06:33:36.261Z,17.25
2022-10-21T06:36:05.533Z,17.24
2022-10-21T06:38:34.025Z,17.24
2022-10-21T06:41:06.885Z,17.26
2022-10-21T06:43:39.254Z,17.23
2022-10-21T06:46:10.305Z,17.24
2022-10-21T06:48:39.205Z,17.21
2022-10-21T06:51:09.564Z,17.32
2022-10-21T06:53:39.643Z,17.32
2022-10-21T06:56:10.019Z,17.22
2022-10-21T06:58:43.452Z,17.22
2022-10-21T07:01:27.396Z,17.02
2022-10-21T07:04:03.472Z,17.07
2022-10-21T07:09:01.809Z,17.03
2022-10-21T07:11:30.409Z,17.11
2022-10-21T07:14:01.952Z,17.20
2022-10-21T07:16:32.893Z,17.09
2022-10-21T07:19:01.444Z,17.12
2022-10-21T07:21:31.991Z,17.28
2022-10-21T07:24:01.578Z,17.21
2022-10-21T07:26:34.009Z,17.16
2022-10-21T07:29:06.965Z,17.37
2022-10-21T07:31:38.127Z,17.29
2022-10-21T07:34:08.489Z,17.39
2022-10-21T07:36:39.191Z,17.51
2022-10-21T07:39:11.109Z,17.48
2022-10-21T07:41:41.719Z,17.52
2022-10-21T07:44:12.651Z,17.60
2022-10-21T07:46:45.892Z,17.81
2022-10-21T07:49:15.710Z,18.06
2022-10-21T07:51:46.425Z,18.08
2022-10-21T07:54:15.763Z,18.11
2022-10-21T07:56:46.086Z,18.24
2022-10-21T07:59:17.581Z,18.48
2022-10-21T08:04:23.358Z,18.94
2022-10-21T08:06:52.052Z,19.01
2022-10-21T08:09:20.593Z,19.21
2022-10-21T08:11:49.878Z,19.22
2022-10-21T08:14:19.960Z,19.35
2022-10-21T08:16:52.768Z,19.74
2022-10-21T08:19:24.726Z,20.07
2022-10-21T08:21:53.176Z,19.64
2022-10-21T08:24:23.569Z,19.77
2022-10-21T08:26:52.290Z,19.43
2022-10-21T08:29:22.189Z,19.28
2022-10-21T08:31:50.611Z,19.21
2022-10-21T08:34:19.105Z,19.51
2022-10-21T08:36:47.537Z,19.23
2022-10-21T08:39:16.375Z,18.79
2022-10-21T08:42:13.179Z,19.18
2022-10-21T08:44:49.817Z,18.99
2022-10-21T08:47:31.193Z,18.96
2022-10-21T08:50:03.788Z,18.72
2022-10-21T08:52:40.197Z,18.81
2022-10-21T08:55:17.423Z,18.94
2022-10-21T08:57:46.142Z,18.96
2022-10-21T09:00:22.735Z,18.84
2022-10-21T09:03:01.953Z,18.85
2022-10-21T09:06:03.289Z,18.93
2022-10-21T09:08:38.143Z,18.81
2022-10-21T09:11:20.604Z,18.97
2022-10-21T09:14:13.447Z,18.87
2022-10-21T09:16:51.947Z,19.24
2022-10-21T09:19:33.452Z,19.44
2022-10-21T09:22:34.423Z,19.42
2022-10-21T09:25:16.890Z,19.68
2022-10-21T09:27:55.508Z,19.35
2022-10-21T09:30:25.939Z,18.97
2022-10-21T09:32:59.827Z,18.83
2022-10-21T09:35:36.350Z,18.66
2022-10-21T09:38:15.062Z,18.54
2022-10-21T09:40:44.323Z,18.50
2022-10-21T09:43:19.590Z,18.61
2022-10-21T09:45:48.611Z,18.85
2022-10-21T09:48:35.123Z,18.84
2022-10-21T09:51:15.634Z,19.30
2022-10-21T09:53:53.999Z,19.25
2022-10-21T09:56:27.631Z,18.71
2022-10-21T09:59:08.077Z,18.81
2022-10-21T10:01:38.214Z,18.80
2022-10-21T10:04:14.182Z,19.00
2022-10-21T10:06:44.758Z,18.83
2022-10-21T10:09:19.115Z,19.01
2022-10-21T10:11:57.614Z,19.33
2022-10-21T10:14:33.383Z,19.29
2022-10-21T10:17:29.043Z,19.59
2022-10-21T10:20:18.723Z,20.40
2022-10-21T10:22:48.186Z,21.20
2022-10-21T10:25:26.542Z,21.34
2022-10-21T10:27:57.734Z,20.98
2022-10-21T10:30:28.539Z,21.76
2022-10-21T10:32:58.432Z,22.28
2022-10-21T10:35:32.381Z,22.77
2022-10-21T10:38:02.810Z,22.43
2022-10-21T10:40:39.643Z,22.14
2022-10-21T10:43:14.990Z,22.03
2022-10-21T10:45:50.187Z,22.08
2022-10-21T10:48:25.343Z,22.32
2022-10-21T10:50:55.953Z,22.36
2022-10-21T10:53:30.497Z,23.02
2022-10-21T10:56:07.841Z,23.71
2022-10-21T10:58:40.052Z,23.04
2022-10-21T11:01:18.944Z,23.29
2022-10-21T11:03:53.273Z,23.80
2022-10-21T11:06:33.324Z,23.40
2022-10-21T11:09:03.695Z,23.04
2022-10-21T11:11:37.840Z,23.12
2022-10-21T11:14:15.442Z,23.09
2022-10-21T11:17:02.099Z,23.31
2022-10-21T11:19:41.185Z,23.15
2022-10-21T11:22:23.011Z,21.69
2022-10-21T11:25:05.654Z,20.88
2022-10-21T11:27:55.369Z,20.73
2022-10-21T11:30:30.212Z,21.31
2022-10-21T11:33:10.361Z,21.90
2022-10-21T11:35:56.722Z,21.44
2022-10-21T11:38:45.922Z,21.49
2022-10-21T11:41:28.247Z,21.24
2022-10-21T11:44:06.679Z,20.76
2022-10-21T11:46:48.479Z,21.20
2022-10-21T11:49:41.110Z,22.43
2022-10-21T11:52:20.939Z,24.01
2022-10-21T11:55:28.193Z,24.56
2022-10-21T11:58:08.317Z,23.27
2022-10-21T12:00:46.078Z,22.15
2022-10-21T12:03:41.051Z,22.24
2022-10-21T12:06:22.694Z,21.52
2022-10-21T12:08:58.666Z,22.42
2022-10-21T12:11:34.340Z,22.11
2022-10-21T12:14:09.826Z,22.55
2022-10-21T12:16:38.347Z,21.83
2022-10-21T12:19:12.298Z,21.93
2022-10-21T12:21:45.045Z,22.78
2022-10-21T12:24:25.678Z,22.91
2022-10-21T12:27:04.922Z,24.40
2022-10-21T12:29:48.078Z,24.53
2022-10-21T12:32:23.687Z,23.41
2022-10-21T12:34:52.363Z,22.89
2022-10-21T12:37:43.549Z,22.85
2022-10-21T12:40:15.458Z,23.29
2022-10-21T12:42:58.251Z,23.49
2022-10-21T12:45:29.073Z,23.76
2022-10-21T12:47:58.292Z,23.19
2022-10-21T12:50:30.132Z,22.63
2022-10-21T12:53:13.356Z,22.39
2022-10-21T12:55:42.982Z,22.16
2022-10-21T12:58:26.750Z,22.27
2022-10-21T13:00:58.187Z,22.68
2022-10-21T13:03:52.620Z,22.13
2022-10-21T13:06:54.880Z,22.41
2022-10-21T13:09:38.644Z,22.41
2022-10-21T13:12:27.287Z,22.93
2022-10-21T13:14:59.468Z,22.24
2022-10-21T13:17:33.982Z,22.38
2022-10-21T13:20:39.880Z,22.44
2022-10-21T13:23:31.922Z,22.44
2022-10-21T13:26:25.655Z,22.18
2022-10-21T13:29:00.688Z,21.89
2022-10-21T13:31:31.461Z,21.70
2022-10-21T13:34:00.290Z,21.38
2022-10-21T13:36:43.031Z,20.97
2022-10-21T13:39:26.175Z,20.99
2022-10-21T13:42:01.631Z,20.88
2022-10-21T13:44:34.878Z,20.93
2022-10-21T13:47:32.301Z,21.06
2022-10-21T13:50:12.094Z,20.52
2022-10-21T13:52:43.785Z,19.18
2022-10-21T13:55:19.963Z,19.09
2022-10-21T13:57:50.043Z,19.21
2022-10-21T14:00:23.332Z,19.63
2022-10-21T14:02:54.738Z,20.13
2022-10-21T14:05:31.577Z,20.35
2022-10-21T14:08:00.507Z,20.35
2022-10-21T14:10:30.899Z,20.81
2022-10-21T14:13:00.831Z,21.03
2022-10-21T14:15:41.087Z,21.05
2022-10-21T14:18:28.247Z,20.78
2022-10-21T14:20:59.220Z,20.87
2022-10-21T14:23:28.913Z,20.84
2022-10-21T14:26:04.944Z,20.74
2022-10-21T14:28:34.500Z,20.41
2022-10-21T14:33:39.629Z,20.21
2022-10-21T14:36:12.774Z,20.20
2022-10-21T14:38:44.255Z,20.13
2022-10-21T14:41:20.632Z,20.11
2022-10-21T14:43:52.714Z,20.28
2022-10-21T14:46:22.069Z,20.34
2022-10-21T14:48:55.648Z,20.21
2022-10-21T14:51:24.666Z,20.14
2022-10-21T14:53:57.565Z,20.06
2022-10-21T14:56:32.390Z,19.73
2022-10-21T14:59:03.365Z,19.44
2022-10-21T15:01:32.456Z,19.66
2022-10-21T15:04:02.950Z,20.06
2022-10-21T15:06:34.696Z,20.14
2022-10-21T15:09:19.594Z,19.85
2022-10-21T15:11:48.588Z,19.94
2022-10-21T15:14:33.138Z,19.90
2022-10-21T15:17:05.123Z,19.80
2022-10-21T15:19:46.358Z,20.14
2022-10-21T15:22:26.126Z,20.24
2022-10-21T15:24:59.589Z,20.21
2022-10-21T15:27:36.593Z,20.38
2022-10-21T15:30:07.652Z,19.96
2022-10-21T15:32:45.242Z,19.89
2022-10-21T15:35:18.314Z,19.65
2022-10-21T15:37:49.654Z,19.86
2022-10-21T15:40:19.178Z,19.67
2022-10-21T15:42:48.262Z,19.74
2022-10-21T15:45:19.449Z,19.69
2022-10-21T15:47:52.603Z,19.66
2022-10-21T15:50:25.514Z,19.66
2022-10-21T15:55:27.789Z,19.72
2022-10-21T15:57:56.182Z,19.58
2022-10-21T16:00:25.176Z,19.69
2022-10-21T16:02:53.882Z,19.75
2022-10-21T16:05:23.757Z,19.61
2022-10-21T16:07:52.527Z,19.55
2022-10-21T16:10:23.338Z,19.55
2022-10-21T16:12:51.875Z,19.59
2022-10-21T16:15:21.363Z,19.79
2022-10-21T16:17:53.683Z,19.76
2022-10-21T16:20:25.035Z,19.56
2022-10-21T16:22:54.187Z,19.48
2022-10-21T16:25:23.340Z,19.33
2022-10-21T16:27:56.365Z,19.50
2022-10-21T16:30:27.768Z,19.50
2022-10-21T16:32:57.321Z,19.59
2022-10-21T16:35:27.761Z,19.42
2022-10-21T16:37:56.857Z,19.71
2022-10-21T16:40:27.667Z,19.49
2022-10-21T16:42:56.639Z,19.34
2022-10-21T16:45:30.142Z,19.54
2022-10-21T16:48:01.141Z,19.57
2022-10-21T16:50:39.732Z,19.36
2022-10-21T16:53:15.989Z,19.35
2022-10-21T16:55:44.603Z,19.34
2022-10-21T16:58:13.020Z,19.17
2022-10-21T17:00:42.447Z,19.25
2022-10-21T17:03:12.222Z,19.20
2022-10-21T17:05:42.051Z,19.04
2022-10-21T17:08:10.481Z,18.97
2022-10-21T17:10:38.963Z,18.94
2022-10-21T17:13:07.391Z,18.91
2022-10-21T17:15:36.191Z,18.80
2022-10-21T17:18:05.126Z,18.91
2022-10-21T17:20:33.958Z,18.78
2022-10-21T17:23:04.674Z,18.82
2022-10-21T17:25:33.124Z,18.84
2022-10-21T17:28:04.061Z,18.62
2022-10-21T17:30:33.053Z,18.68
2022-10-21T17:33:01.568Z,18.64
2022-10-21T17:35:30.247Z,18.51
2022-10-21T17:37:58.712Z,18.56
2022-10-21T17:40:29.093Z,18.59
2022-10-21T17:42:58.537Z,18.59
2022-10-21T17:45:27.345Z,18.42
2022-10-21T17:47:55.806Z,18.33
2022-10-21T17:50:26.931Z,18.18
2022-10-21T17:52:56.273Z,18.17
2022-10-21T17:55:24.754Z,18.06
2022-10-21T17:57:54.642Z,18.02
2022-10-21T18:00:23.489Z,17.93
2022-10-21T18:02:51.974Z,17.91
2022-10-21T18:05:21.416Z,17.88
2022-10-21T18:07:49.816Z,17.86
2022-10-21T18:10:18.321Z,17.69
2022-10-21T18:12:46.905Z,17.81
2022-10-21T18:15:16.824Z,17.81
2022-10-21T18:17:45.684Z,17.81
2022-10-21T18:20:17.046Z,17.86
2022-10-21T18:22:45.473Z,17.71
2022-10-21T18:25:15.519Z,17.61
2022-10-21T18:30:19.029Z,17.74
2022-10-21T18:32:47.625Z,17.76
2022-10-21T18:35:16.199Z,17.74
2022-10-21T18:37:44.921Z,17.79
2022-10-21T18:40:13.880Z,17.83
2022-10-21T18:42:42.364Z,17.86
2022-10-21T18:45:11.638Z,17.96
2022-10-21T18:47:42.265Z,17.99
2022-10-21T18:50:12.505Z,17.86
2022-10-21T18:52:41.425Z,17.90
2022-10-21T18:55:11.049Z,17.98
2022-10-21T18:57:39.853Z,17.63
2022-10-21T19:00:10.136Z,17.93
2022-10-21T19:02:39.104Z,17.70
2022-10-21T19:05:09.657Z,17.96
2022-10-21T19:07:38.479Z,17.92
2022-10-21T19:10:08.695Z,17.91
2022-10-21T19:12:37.141Z,17.81
2022-10-21T19:15:06.784Z,17.97
2022-10-21T19:17:35.507Z,17.89
2022-10-21T19:20:04.006Z,17.79
2022-10-21T19:22:34.162Z,17.72
2022-10-21T19:25:02.580Z,17.62
2022-10-21T19:27:31.005Z,17.57
2022-10-21T19:29:59.606Z,17.52
2022-10-21T19:32:28.021Z,17.61
2022-10-21T19:34:56.453Z,17.64
2022-10-21T19:37:25.121Z,17.65
2022-10-21T19:39:55.513Z,17.48
2022-10-21T19:42:24.365Z,17.62
2022-10-21T19:44:52.898Z,17.64
2022-10-21T19:47:21.340Z,17.51
2022-10-21T19:49:49.765Z,17.56
2022-10-21T19:52:18.244Z,17.45
2022-10-21T19:54:46.774Z,17.55
2022-10-21T19:57:16.554Z,17.49
2022-10-21T19:59:45.150Z,17.52
2022-10-21T20:02:15.371Z,17.43
2022-10-21T20:04:43.965Z,17.50
2022-10-21T20:07:12.489Z,17.54
2022-10-21T20:09:41.079Z,17.53
2022-10-21T20:12:09.861Z,17.56
2022-10-21T20:14:39.730Z,17.52
2022-10-21T20:17:09.129Z,17.51
2022-10-21T20:19:37.720Z,17.13
2022-10-21T20:22:06.338Z,17.53
2022-10-21T20:24:34.841Z,17.18
2022-10-21T20:27:03.302Z,17.19
2022-10-21T20:29:31.923Z,17.48
2022-10-21T20:32:02.170Z,17.18
2022-10-21T20:34:33.974Z,17.43
2022-10-21T20:37:05.552Z,17.40
2022-10-21T20:39:33.990Z,17.36
2022-10-21T20:42:03.683Z,17.35
2022-10-21T20:44:32.276Z,17.28
2022-10-21T20:47:02.112Z,17.27
2022-10-21T20:49:30.573Z,17.22
2022-10-21T20:51:59.078Z,17.19
2022-10-21T20:54:29.181Z,17.14
2022-10-21T20:56:57.685Z,17.22
2022-10-21T20:59:26.186Z,17.21
2022-10-21T21:01:55.021Z,17.23
2022-10-21T21:04:25.673Z,17.23
2022-10-21T21:06:54.342Z,17.28
2022-10-21T21:12:12.238Z,17.23
2022-10-21T21:14:41.335Z,17.32
2022-10-21T21:17:09.820Z,17.38
2022-10-21T21:19:39.890Z,17.37
2022-10-21T21:22:09.283Z,17.37
2022-10-21T21:24:37.809Z,17.37
2022-10-21T21:27:06.281Z,17.42
2022-10-21T21:29:34.786Z,17.48
2022-10-21T21:32:03.468Z,17.44
2022-10-21T21:34:32.506Z,17.50
2022-10-21T21:37:02.277Z,17.39
2022-10-21T21:39:30.721Z,17.32
2022-10-21T21:41:59.301Z,17.26
2022-10-21T21:44:28.123Z,17.20
2022-10-21T21:46:57.205Z,17.25
2022-10-21T21:49:26.234Z,17.08
2022-10-21T21:51:54.675Z,17.09
2022-10-21T21:54:24.589Z,17.10
2022-10-21T21:56:57.388Z,17.01
2022-10-21T21:59:41.503Z,17.01
2022-10-21T22:02:16.556Z,17.06
2022-10-21T22:04:51.131Z,16.94
2022-10-21T22:07:22.315Z,16.97
2022-10-21T22:09:52.180Z,16.94
2022-10-21T22:12:23.372Z,16.90
2022-10-21T22:14:53.766Z,16.91
2022-10-21T22:17:22.455Z,17.01
2022-10-21T22:22:40.077Z,17.05
2022-10-21T22:25:13.367Z,17.07
2022-10-21T22:27:42.321Z,17.00
2022-10-21T22:30:13.198Z,16.88
2022-10-21T22:32:41.872Z,16.95
2022-10-21T22:35:11.563Z,17.03
2022-10-21T22:37:40.673Z,17.02
2022-10-21T22:40:12.019Z,16.89
2022-10-21T22:42:40.477Z,16.84
2022-10-21T22:45:10.118Z,16.89
2022-10-21T22:47:38.855Z,16.90
2022-10-21T22:50:08.012Z,16.86
2022-10-21T22:52:42.463Z,16.66
2022-10-21T22:55:12.760Z,16.86
2022-10-21T22:57:41.237Z,16.84
2022-10-21T23:00:10.590Z,16.91
2022-10-21T23:02:39.200Z,16.98
2022-10-21T23:05:08.272Z,17.01
2022-10-21T23:07:36.821Z,16.97
2022-10-21T23:12:41.294Z,16.88
2022-10-21T23:15:11.134Z,16.96
2022-10-21T23:17:39.736Z,16.86
2022-10-21T23:20:09.331Z,16.99
2022-10-21T23:22:38.339Z,16.92
2022-10-21T23:25:08.130Z,17.07
2022-10-21T23:27:36.864Z,17.16
2022-10-21T23:30:07.956Z,17.21
2022-10-21T23:32:36.873Z,17.23
2022-10-21T23:35:06.397Z,17.28
2022-10-21T23:37:34.830Z,17.36
2022-10-21T23:40:03.419Z,17.31
2022-10-21T23:42:31.892Z,17.27
2022-10-21T23:45:00.302Z,17.29
2022-10-21T23:47:30.596Z,17.32
2022-10-21T23:49:59.022Z,17.38
2022-10-21T23:52:27.447Z,17.44
2022-10-21T23:54:56.327Z,17.43
2022-10-21T23:57:25.960Z,17.46
2022-10-21T23:59:54.458Z,17.49
